createdAt,value
2023-04-12T17:23:44.362Z,2.70
2023-04-12T17:28:31.028Z,2.85
2023-04-12T17:30:57.980Z,2.30
2023-04-12T17:33:26.400Z,2.72
2023-04-12T17:35:53.283Z,3.15
2023-04-12T17:38:20.739Z,2.42
2023-04-12T17:40:47.701Z,2.60
2023-04-12T17:43:14.521Z,3.50
2023-04-12T17:45:41.415Z,3.15
2023-04-12T17:48:09.082Z,6.03
2023-04-12T17:50:36.385Z,5.28
2023-04-12T17:53:03.708Z,2.85
2023-04-12T17:55:30.756Z,3.30
2023-04-12T17:57:58.353Z,3.83
2023-04-12T18:00:25.507Z,2.75
2023-04-12T18:02:53.465Z,3.47
2023-04-12T18:05:20.538Z,3.78
2023-04-12T18:07:47.384Z,2.90
2023-04-12T18:10:15.831Z,3.42
2023-04-12T18:12:46.654Z,3.03
2023-04-12T18:15:13.988Z,3.53
2023-04-12T18:17:41.446Z,2.70
2023-04-12T18:20:12.264Z,3.47
2023-04-12T18:22:39.407Z,3.22
2023-04-12T18:25:09.865Z,3.60
2023-04-12T18:27:36.779Z,2.78
2023-04-12T18:30:05.200Z,3.53
2023-04-12T18:32:32.288Z,3.08
2023-04-12T18:34:59.194Z,3.03
2023-04-12T18:37:26.071Z,3.60
2023-04-12T18:39:53.501Z,3.60
2023-04-12T18:42:20.401Z,6.38
2023-04-12T18:44:47.345Z,6.63
2023-04-12T18:47:14.259Z,3.47
2023-04-12T18:49:41.137Z,3.45
2023-04-12T18:52:08.054Z,3.63
2023-04-12T18:54:35.115Z,2.63
2023-04-12T18:57:03.682Z,2.38
2023-04-12T18:59:30.884Z,1.67
2023-04-12T19:01:57.980Z,2.40
2023-04-12T19:04:25.015Z,2.10
2023-04-12T19:06:52.796Z,1.45
2023-04-12T19:09:19.741Z,2.03
2023-04-12T19:11:46.737Z,1.52
2023-04-12T19:14:13.804Z,1.85
2023-04-12T19:16:41.678Z,1.27
2023-04-12T19:19:08.672Z,1.70
2023-04-12T19:21:35.673Z,2.50
2023-04-12T19:24:02.532Z,3.65
2023-04-12T19:26:30.466Z,5.10
2023-04-12T19:28:59.025Z,6.22
2023-04-12T19:31:26.414Z,6.78
2023-04-12T19:33:55.576Z,6.50
2023-04-12T19:36:24.929Z,4.60
2023-04-12T19:38:52.335Z,3.95
2023-04-12T19:41:20.684Z,3.03
2023-04-12T19:43:47.890Z,3.38
2023-04-12T19:46:14.942Z,3.00
2023-04-12T19:48:41.931Z,3.85
2023-04-12T19:51:09.113Z,3.67
2023-04-12T19:53:35.933Z,4.93
2023-04-12T19:56:04.411Z,6.22
2023-04-12T19:58:32.327Z,6.65
2023-04-12T20:01:02.380Z,6.55
2023-04-12T20:05:58.373Z,6.63
2023-04-12T20:08:25.354Z,7.13
2023-04-12T20:10:52.283Z,6.60
2023-04-12T20:13:19.088Z,6.57
2023-04-12T20:15:46.284Z,6.25
2023-04-12T20:18:13.685Z,6.78
2023-04-12T20:20:44.313Z,7.97
2023-04-12T20:23:12.572Z,7.40
2023-04-12T20:25:41.959Z,8.30
2023-04-12T20:28:09.313Z,6.03
2023-04-12T20:30:39.746Z,6.35
2023-04-12T20:33:08.710Z,5.55
2023-04-12T20:35:35.782Z,4.43
2023-04-12T20:38:02.783Z,3.42
2023-04-12T20:40:30.429Z,3.05
2023-04-12T20:42:57.432Z,3.33
2023-04-12T20:45:24.489Z,2.85
2023-04-12T20:47:51.545Z,2.20
2023-04-12T20:50:22.623Z,2.50
2023-04-12T20:52:52.317Z,2.53
2023-04-12T20:55:19.825Z,2.20
2023-04-12T20:57:47.004Z,2.10
2023-04-12T21:00:18.342Z,2.15
2023-04-12T21:02:49.049Z,1.85
2023-04-12T21:05:17.238Z,1.92
2023-04-12T21:07:46.890Z,1.92
2023-04-12T21:10:15.281Z,1.92
2023-04-12T21:12:43.054Z,2.10
2023-04-12T21:15:12.011Z,1.88
2023-04-12T21:17:39.562Z,2.10
2023-04-12T21:20:13.826Z,2.60
2023-04-12T21:22:43.328Z,2.35
2023-04-12T21:25:16.506Z,2.60
2023-04-12T21:27:45.290Z,2.20
2023-04-12T21:30:13.438Z,1.98
2023-04-12T21:32:41.423Z,2.45
2023-04-12T21:35:08.893Z,2.05
2023-04-12T21:37:37.091Z,1.92
2023-04-12T21:40:09.349Z,1.88
2023-04-12T21:42:40.304Z,2.38
2023-04-12T21:45:13.235Z,2.45
2023-04-12T21:47:41.386Z,2.30
2023-04-12T21:50:10.075Z,2.08
2023-04-12T21:52:37.575Z,3.20
2023-04-12T21:55:05.374Z,3.92
2023-04-12T21:57:33.726Z,5.03
2023-04-12T22:00:01.807Z,4.82
2023-04-12T22:02:38.897Z,3.20
2023-04-12T22:05:07.044Z,4.18
2023-04-12T22:07:33.873Z,4.70
2023-04-12T22:10:02.125Z,4.65
2023-04-12T22:12:29.013Z,5.35
2023-04-12T22:14:57.909Z,4.68
2023-04-12T22:17:25.113Z,4.88
2023-04-12T22:19:55.302Z,5.03
2023-04-12T22:24:49.454Z,4.50
2023-04-12T22:27:16.649Z,4.40
2023-04-12T22:29:43.774Z,4.18
2023-04-12T22:32:10.658Z,4.28
2023-04-12T22:34:37.491Z,4.43
2023-04-12T22:37:05.564Z,4.45
2023-04-12T22:39:33.167Z,3.97
2023-04-12T22:42:00.131Z,3.53
2023-04-12T22:44:29.346Z,3.80
2023-04-12T22:46:56.920Z,4.25
2023-04-12T22:49:28.379Z,3.20
2023-04-12T22:51:56.048Z,3.55
2023-04-12T22:54:24.261Z,3.22
2023-04-12T22:56:51.833Z,2.65
2023-04-12T22:59:20.285Z,3.28
2023-04-12T23:01:47.582Z,3.40
2023-04-12T23:04:16.039Z,2.88
2023-04-12T23:06:44.282Z,3.53
2023-04-12T23:09:12.649Z,3.25
2023-04-12T23:11:41.051Z,2.55
2023-04-12T23:14:09.258Z,2.38
2023-04-12T23:16:42.607Z,3.08
2023-04-12T23:19:10.328Z,3.13
2023-04-12T23:21:37.386Z,2.85
2023-04-12T23:24:05.420Z,2.08
2023-04-12T23:26:34.537Z,2.33
2023-04-12T23:29:04.429Z,2.70
2023-04-12T23:31:32.532Z,3.00
2023-04-12T23:34:03.536Z,3.17
2023-04-12T23:36:30.744Z,3.33
2023-04-12T23:39:00.528Z,3.35
2023-04-12T23:41:32.214Z,3.35
2023-04-12T23:43:59.807Z,3.20
2023-04-12T23:46:27.417Z,3.13
2023-04-12T23:48:54.484Z,3.00
2023-04-12T23:51:22.328Z,3.92
2023-04-12T23:53:49.297Z,3.20
2023-04-12T23:56:16.599Z,3.40
2023-04-12T23:58:43.505Z,3.13
